YXLT weather

Caboolture Hospital Helipad
Caboolture, Queensland, Australia

Public forecast

Using degrees Celsius for public forecast. Weather courtesy of forecast.io.

METAR (pilot weather report)

Closest report is Brisbane International Airport, 20.1 nm (37.1 km) SSE. Retrieved 2019/02/15 19:00 UTC (2 hours ago):

YBBN 151900Z 21008KT CAVOK 20/14 Q1016 NOSIG

TAF (pilot weather forecast)

Closest forecast is Brisbane International Airport, 20.1 nm (37.1 km) SSE. Retrieved 2019/02/15 18:36 UTC (2 hours ago):

TAF YBBN 151704Z 1518/1624 18009KT 9999 FEW030 SCT045 FM160000 15014KT 9999 SCT040 FM160200 12017KT 9999 SCT045 FM160900 15012KT 9999 SCT030 FM161200 18008KT 9999 SCT025